createdAt,value
2022-12-24T00:02:09.555Z,13.60
2022-12-24T00:05:31.980Z,12.18
2022-12-24T00:08:54.254Z,14.05
2022-12-24T00:12:16.519Z,14.50
2022-12-24T00:15:38.745Z,10.05
2022-12-24T00:19:01.067Z,13.60
2022-12-24T00:22:23.307Z,16.40
2022-12-24T00:25:46.691Z,11.02
2022-12-24T00:29:10.662Z,12.90
2022-12-24T00:32:32.936Z,12.50
2022-12-24T00:35:55.172Z,14.80
2022-12-24T00:39:17.657Z,13.77
2022-12-24T00:42:39.872Z,14.18
2022-12-24T00:46:02.187Z,11.10
2022-12-24T00:49:24.537Z,10.55
2022-12-24T00:52:46.847Z,12.18
2022-12-24T00:56:09.880Z,16.25
2022-12-24T00:59:32.195Z,13.25
2022-12-24T01:02:54.588Z,13.85
2022-12-24T01:06:21.475Z,12.70
2022-12-24T01:09:43.735Z,12.75
2022-12-24T01:13:06.164Z,12.50
2022-12-24T01:16:28.572Z,14.00
2022-12-24T01:19:51.042Z,12.93
2022-12-24T01:23:13.330Z,15.80
2022-12-24T01:26:35.588Z,12.15
2022-12-24T01:29:57.830Z,10.52
2022-12-24T01:33:20.173Z,10.27
2022-12-24T01:36:42.426Z,12.50
2022-12-24T01:40:30.288Z,14.43
2022-12-24T01:43:52.580Z,14.35
2022-12-24T01:47:30.816Z,12.68
2022-12-24T01:51:16.162Z,11.13
2022-12-24T01:54:58.647Z,10.30
2022-12-24T01:58:22.944Z,12.88
2022-12-24T02:01:47.363Z,8.83
2022-12-24T02:05:21.083Z,7.77
2022-12-24T02:08:44.191Z,7.85
2022-12-24T02:12:07.633Z,9.73
2022-12-24T02:15:44.498Z,11.82
2022-12-24T02:19:27.648Z,9.25
2022-12-24T02:23:17.338Z,12.00
2022-12-24T02:27:09.905Z,10.45
2022-12-24T02:30:45.515Z,9.02
2022-12-24T02:34:36.080Z,9.75
2022-12-24T02:38:20.313Z,9.63
2022-12-24T02:42:07.453Z,9.07
2022-12-24T02:45:32.046Z,13.40
2022-12-24T02:48:55.321Z,13.38
2022-12-24T02:52:36.868Z,13.18
2022-12-24T02:56:15.880Z,12.23
2022-12-24T02:59:52.949Z,9.93
2022-12-24T03:03:33.910Z,10.02
2022-12-24T03:07:12.217Z,11.93
2022-12-24T03:10:43.242Z,10.70
2022-12-24T03:14:05.775Z,11.35
2022-12-24T03:17:28.598Z,10.25
2022-12-24T03:21:03.829Z,12.27
2022-12-24T03:24:26.180Z,13.63
2022-12-24T03:27:48.841Z,12.85
2022-12-24T03:31:11.995Z,9.55
2022-12-24T03:34:34.672Z,10.52
2022-12-24T03:37:57.002Z,9.20
2022-12-24T03:41:19.256Z,10.45
2022-12-24T03:44:41.547Z,6.30
2022-12-24T03:48:04.174Z,9.23
2022-12-24T03:51:26.966Z,9.32
2022-12-24T03:54:49.263Z,10.63
2022-12-24T03:58:11.458Z,7.70
2022-12-24T04:01:33.823Z,6.75
2022-12-24T04:04:56.220Z,10.77
2022-12-24T04:08:18.481Z,8.25
2022-12-24T04:11:40.723Z,8.30
2022-12-24T04:15:03.716Z,8.73
2022-12-24T04:18:26.685Z,5.47
2022-12-24T04:21:48.983Z,7.95
2022-12-24T04:25:11.315Z,7.80
2022-12-24T04:28:34.578Z,8.80
2022-12-24T04:31:56.919Z,6.03
2022-12-24T04:35:19.395Z,4.90
2022-12-24T04:38:41.619Z,6.63
2022-12-24T04:42:03.977Z,7.00
2022-12-24T04:45:26.351Z,4.82
2022-12-24T04:48:50.412Z,3.13
2022-12-24T04:52:12.667Z,4.10
2022-12-24T04:55:34.926Z,3.90
2022-12-24T04:58:58.358Z,6.22
2022-12-24T05:02:20.882Z,3.75
2022-12-24T05:05:43.227Z,6.93
2022-12-24T05:09:05.660Z,3.78
2022-12-24T05:12:28.026Z,5.40
2022-12-24T05:15:50.405Z,7.57
2022-12-24T05:19:12.899Z,5.22
2022-12-24T05:22:53.586Z,5.93
2022-12-24T05:26:24.555Z,7.28
2022-12-24T05:29:46.878Z,5.05
2022-12-24T05:33:09.089Z,7.63
2022-12-24T05:36:31.708Z,6.40
2022-12-24T05:39:53.949Z,3.25
2022-12-24T05:43:16.198Z,4.03
2022-12-24T05:46:38.537Z,5.65
2022-12-24T05:50:00.959Z,4.90
2022-12-24T05:53:23.568Z,2.60
2022-12-24T05:56:45.823Z,3.38
2022-12-24T06:00:09.225Z,3.85
2022-12-24T06:03:34.840Z,5.90
2022-12-24T06:06:57.086Z,4.30
2022-12-24T06:10:19.788Z,5.85
2022-12-24T06:13:43.221Z,7.95
2022-12-24T06:17:05.571Z,1.70
2022-12-24T06:20:27.829Z,2.78
2022-12-24T06:23:50.113Z,7.75
2022-12-24T06:27:12.346Z,3.33
2022-12-24T06:30:34.633Z,3.33
2022-12-24T06:33:56.885Z,5.95
2022-12-24T06:37:19.328Z,2.42
2022-12-24T06:40:43.446Z,2.67
2022-12-24T06:44:05.952Z,6.07
2022-12-24T06:47:28.202Z,6.43
2022-12-24T06:50:50.484Z,5.55
2022-12-24T06:54:12.786Z,5.47
2022-12-24T06:57:35.054Z,4.82
2022-12-24T07:00:57.290Z,6.63
2022-12-24T07:04:20.595Z,4.18
2022-12-24T07:07:44.873Z,2.72
2022-12-24T07:11:07.117Z,2.90
2022-12-24T07:14:29.353Z,5.18
2022-12-24T07:17:51.637Z,4.32
2022-12-24T07:21:14.007Z,5.38
2022-12-24T07:24:36.412Z,4.47
2022-12-24T07:27:58.639Z,4.57
2022-12-24T07:31:21.209Z,5.18
2022-12-24T07:34:43.552Z,5.93
2022-12-24T07:38:05.834Z,9.30
2022-12-24T07:41:28.077Z,6.50
2022-12-24T07:44:50.380Z,7.95
2022-12-24T07:48:12.635Z,7.28
2022-12-24T07:51:34.925Z,6.10
2022-12-24T07:54:57.270Z,15.25
2022-12-24T07:58:19.767Z,11.48
2022-12-24T08:01:42.355Z,7.32
2022-12-24T08:05:05.149Z,10.13
2022-12-24T08:08:27.509Z,9.85
2022-12-24T08:11:52.337Z,4.40
2022-12-24T08:15:14.920Z,7.53
2022-12-24T08:18:37.273Z,8.18
2022-12-24T08:21:59.671Z,8.43
2022-12-24T08:25:22.148Z,5.32
2022-12-24T08:28:45.007Z,10.18
2022-12-24T08:32:07.343Z,4.32
2022-12-24T08:35:29.740Z,3.90
2022-12-24T08:38:52.101Z,7.65
2022-12-24T08:42:14.405Z,4.32
2022-12-24T08:45:40.836Z,5.85
2022-12-24T08:49:03.545Z,5.60
2022-12-24T08:52:25.877Z,12.05
2022-12-24T08:55:55.479Z,6.65
2022-12-24T08:59:18.540Z,6.05
2022-12-24T09:02:41.016Z,3.30
2022-12-24T09:06:04.863Z,7.35
2022-12-24T09:09:34.110Z,4.97
2022-12-24T09:12:59.907Z,5.57
2022-12-24T09:16:22.516Z,4.10
2022-12-24T09:19:45.193Z,4.20
2022-12-24T09:23:07.534Z,4.63
2022-12-24T09:26:32.631Z,5.25
2022-12-24T09:29:54.905Z,8.07
2022-12-24T09:33:17.186Z,6.15
2022-12-24T09:36:39.500Z,3.58
2022-12-24T09:40:01.807Z,4.38
2022-12-24T09:43:27.107Z,5.72
2022-12-24T09:50:37.144Z,3.67
2022-12-24T09:54:20.691Z,4.22
2022-12-24T09:57:44.346Z,6.15
2022-12-24T10:01:11.900Z,4.00
2022-12-24T10:04:34.679Z,4.82
2022-12-24T10:08:09.702Z,8.80
2022-12-24T10:11:48.838Z,5.03
2022-12-24T10:15:26.421Z,4.82
2022-12-24T10:19:05.530Z,7.47
2022-12-24T10:22:33.350Z,6.80
2022-12-24T10:25:58.549Z,4.97
2022-12-24T10:32:51.255Z,3.78
2022-12-24T10:36:18.485Z,3.53
2022-12-24T10:39:40.725Z,4.30
2022-12-24T10:43:11.159Z,2.72
2022-12-24T10:46:38.880Z,3.97
2022-12-24T10:50:05.933Z,5.38
2022-12-24T10:53:43.110Z,6.03
2022-12-24T10:57:22.890Z,4.45
2022-12-24T11:00:53.198Z,3.25
2022-12-24T11:04:18.337Z,9.07
2022-12-24T11:07:40.582Z,5.63
2022-12-24T11:11:09.422Z,3.38
2022-12-24T11:14:37.470Z,6.75
2022-12-24T11:18:05.827Z,4.90
2022-12-24T11:21:34.079Z,4.97
2022-12-24T11:25:02.242Z,3.42
2022-12-24T11:28:31.841Z,3.85
2022-12-24T11:32:16.512Z,1.20
2022-12-24T11:35:47.934Z,5.40
2022-12-24T11:39:20.559Z,3.72
2022-12-24T11:42:42.946Z,3.55
2022-12-24T11:46:20.000Z,8.13
2022-12-24T11:49:42.348Z,10.38
2022-12-24T11:53:04.605Z,5.30
2022-12-24T11:56:36.428Z,4.72
2022-12-24T11:59:58.754Z,7.70
2022-12-24T12:03:27.882Z,4.43
2022-12-24T12:06:59.074Z,4.45
2022-12-24T12:10:23.565Z,6.38
2022-12-24T12:13:47.617Z,4.45
2022-12-24T12:17:35.096Z,5.45
2022-12-24T12:21:06.153Z,4.63
2022-12-24T12:24:40.247Z,7.68
2022-12-24T12:28:06.403Z,4.10
2022-12-24T12:31:41.396Z,3.80
2022-12-24T12:35:23.773Z,2.85
2022-12-24T12:38:46.226Z,3.90
2022-12-24T12:42:34.338Z,3.40
2022-12-24T12:46:05.889Z,1.95
2022-12-24T12:49:51.172Z,2.05
2022-12-24T12:53:27.763Z,4.93
2022-12-24T12:56:54.886Z,5.13
2022-12-24T13:00:19.274Z,4.40
2022-12-24T13:04:26.757Z,4.77
2022-12-24T13:08:07.552Z,13.30
2022-12-24T13:11:48.560Z,4.40
2022-12-24T13:15:29.565Z,2.70
2022-12-24T13:19:09.681Z,2.55
2022-12-24T13:22:31.977Z,4.47
2022-12-24T13:25:58.724Z,6.10
2022-12-24T13:29:34.627Z,9.15
2022-12-24T13:32:56.973Z,20.38
2022-12-24T13:36:20.726Z,17.45
2022-12-24T13:40:01.620Z,22.20
2022-12-24T13:43:24.004Z,16.52
2022-12-24T13:46:52.554Z,16.70
2022-12-24T13:50:25.130Z,12.30
2022-12-24T13:53:48.677Z,7.80
2022-12-24T13:57:32.662Z,13.73
2022-12-24T14:00:58.873Z,9.45
2022-12-24T14:04:34.578Z,10.50
2022-12-24T14:07:58.107Z,10.90
2022-12-24T14:11:23.459Z,6.50
2022-12-24T14:14:45.767Z,9.55
2022-12-24T14:18:08.437Z,15.15
2022-12-24T14:21:37.455Z,10.75
2022-12-24T14:25:13.839Z,7.95
2022-12-24T14:28:43.060Z,7.15
2022-12-24T14:32:15.087Z,7.22
2022-12-24T14:35:39.632Z,10.65
2022-12-24T14:39:02.327Z,6.47
2022-12-24T14:43:01.147Z,6.80
2022-12-24T14:46:49.322Z,5.57
2022-12-24T14:50:36.307Z,7.95
2022-12-24T14:54:13.535Z,5.20
2022-12-24T14:57:35.832Z,5.05
2022-12-24T15:01:19.544Z,6.18
2022-12-24T15:04:41.957Z,5.05
2022-12-24T15:08:11.050Z,8.25
2022-12-24T15:11:33.430Z,4.50
2022-12-24T15:14:55.806Z,6.20
2022-12-24T15:18:24.163Z,8.05
2022-12-24T15:21:46.511Z,4.13
2022-12-24T15:25:24.575Z,11.35
2022-12-24T15:28:47.020Z,5.47
2022-12-24T15:32:14.294Z,3.50
2022-12-24T15:35:42.749Z,2.53
2022-12-24T15:39:08.382Z,4.43
2022-12-24T15:42:31.033Z,4.18
2022-12-24T15:45:53.837Z,4.65
2022-12-24T15:49:17.823Z,2.17
2022-12-24T15:52:41.801Z,3.60
2022-12-24T15:56:31.574Z,2.10
2022-12-24T15:59:56.114Z,2.35
2022-12-24T16:03:20.656Z,3.38
2022-12-24T16:06:57.691Z,3.95
2022-12-24T16:10:24.945Z,3.78
2022-12-24T16:14:18.934Z,2.55
2022-12-24T16:17:41.233Z,2.45
2022-12-24T16:21:05.483Z,2.42
2022-12-24T16:24:30.156Z,1.67
2022-12-24T16:27:53.720Z,1.83
2022-12-24T16:31:29.296Z,2.45
2022-12-24T16:34:51.576Z,20.80
2022-12-24T16:38:14.123Z,46.95
2022-12-24T16:41:56.453Z,35.83
2022-12-24T16:45:18.769Z,34.88
2022-12-24T16:48:42.168Z,29.40
2022-12-24T16:52:06.384Z,22.08
2022-12-24T16:55:28.669Z,30.10
2022-12-24T16:58:50.910Z,19.33
2022-12-24T17:02:19.848Z,17.23
2022-12-24T17:05:44.102Z,21.92
2022-12-24T17:09:07.607Z,13.90
2022-12-24T17:12:29.852Z,15.32
2022-12-24T17:15:52.101Z,14.13
2022-12-24T17:19:14.751Z,9.35
2022-12-24T17:22:37.440Z,16.83
2022-12-24T17:26:00.112Z,18.75
2022-12-24T17:29:22.417Z,22.08
2022-12-24T17:32:44.726Z,12.57
2022-12-24T17:36:07.354Z,12.02
2022-12-24T17:39:29.693Z,10.85
2022-12-24T17:42:52.543Z,9.00
2022-12-24T17:46:18.048Z,7.20
2022-12-24T17:49:40.374Z,7.30
2022-12-24T17:53:02.705Z,7.10
2022-12-24T17:56:25.709Z,9.77
2022-12-24T17:59:47.980Z,12.73
2022-12-24T18:03:14.071Z,12.38
2022-12-24T18:06:39.951Z,10.07
2022-12-24T18:10:04.825Z,11.10
2022-12-24T18:13:27.222Z,13.90
2022-12-24T18:16:49.970Z,11.60
2022-12-24T18:20:12.750Z,6.45
2022-12-24T18:23:35.056Z,10.00
2022-12-24T18:26:57.389Z,9.80
2022-12-24T18:30:24.368Z,11.23
2022-12-24T18:33:50.795Z,10.27
2022-12-24T18:37:13.045Z,7.30
2022-12-24T18:40:37.615Z,9.00
2022-12-24T18:44:00.124Z,7.15
2022-12-24T18:47:22.463Z,13.60
2022-12-24T18:50:54.834Z,7.03
2022-12-24T18:54:17.143Z,9.90
2022-12-24T18:57:39.429Z,8.75
2022-12-24T19:01:01.726Z,8.23
2022-12-24T19:04:24.059Z,23.65
2022-12-24T19:07:46.441Z,7.97
2022-12-24T19:11:09.010Z,5.72
2022-12-24T19:14:31.379Z,9.60
2022-12-24T19:17:55.162Z,7.32
2022-12-24T19:21:18.148Z,8.10
2022-12-24T19:24:40.514Z,13.45
2022-12-24T19:28:08.555Z,4.30
2022-12-24T19:31:32.237Z,4.57
2022-12-24T19:34:54.961Z,5.10
2022-12-24T19:38:17.293Z,6.57
2022-12-24T19:41:39.586Z,5.25
2022-12-24T19:45:01.964Z,4.80
2022-12-24T19:48:24.267Z,5.68
2022-12-24T19:51:46.934Z,3.35
2022-12-24T19:55:10.357Z,7.68
2022-12-24T19:58:32.936Z,3.60
2022-12-24T20:01:56.248Z,5.72
2022-12-24T20:05:18.756Z,9.80
2022-12-24T20:08:41.454Z,6.63
2022-12-24T20:12:03.884Z,6.20
2022-12-24T20:15:27.416Z,7.65
2022-12-24T20:18:58.044Z,2.35
2022-12-24T20:22:20.476Z,3.15
2022-12-24T20:25:42.797Z,2.58
2022-12-24T20:29:10.278Z,4.30
2022-12-24T20:32:32.665Z,3.72
2022-12-24T20:35:54.903Z,3.47
2022-12-24T20:39:17.256Z,3.10
2022-12-24T20:42:39.612Z,1.88
2022-12-24T20:46:02.674Z,3.05
2022-12-24T20:49:25.085Z,4.07
2022-12-24T20:52:47.440Z,2.45
2022-12-24T20:56:09.749Z,1.33
2022-12-24T20:59:32.048Z,1.83
2022-12-24T21:02:54.518Z,2.08
2022-12-24T21:06:18.057Z,2.10
2022-12-24T21:09:41.579Z,3.05
2022-12-24T21:13:04.898Z,4.13
2022-12-24T21:16:27.264Z,2.28
2022-12-24T21:19:49.585Z,4.15
2022-12-24T21:23:11.877Z,11.48
2022-12-24T21:26:34.864Z,3.70
2022-12-24T21:29:57.594Z,2.85
2022-12-24T21:33:20.080Z,9.30
2022-12-24T21:36:42.650Z,3.42
2022-12-24T21:40:05.987Z,1.80
2022-12-24T21:43:32.695Z,0.98
2022-12-24T21:46:54.916Z,2.97
2022-12-24T21:50:35.652Z,1.38
2022-12-24T21:54:16.759Z,6.32
2022-12-24T21:57:54.335Z,1.80
2022-12-24T22:01:16.857Z,1.20
2022-12-24T22:04:39.261Z,5.10
2022-12-24T22:08:20.437Z,4.75
2022-12-24T22:11:54.344Z,4.45
2022-12-24T22:15:17.319Z,3.05
2022-12-24T22:18:39.581Z,4.97
2022-12-24T22:22:01.941Z,2.55
2022-12-24T22:25:24.380Z,1.92
2022-12-24T22:28:46.636Z,3.53
2022-12-24T22:32:08.956Z,3.65
2022-12-24T22:35:31.341Z,3.75
2022-12-24T22:38:53.575Z,2.33
2022-12-24T22:42:15.866Z,1.10
2022-12-24T22:45:39.505Z,4.35
2022-12-24T22:49:01.909Z,2.25
2022-12-24T22:52:24.671Z,2.83
2022-12-24T22:55:58.295Z,5.22
2022-12-24T22:59:20.735Z,3.22
2022-12-24T23:02:43.617Z,2.10
2022-12-24T23:06:07.666Z,2.00
2022-12-24T23:09:30.350Z,4.30
2022-12-24T23:13:15.232Z,1.40
2022-12-24T23:16:38.157Z,2.08
2022-12-24T23:20:02.872Z,0.85
2022-12-24T23:23:25.498Z,2.90
2022-12-24T23:26:48.267Z,1.98
2022-12-24T23:30:11.002Z,1.55
2022-12-24T23:33:34.707Z,0.77
2022-12-24T23:36:57.226Z,1.10
2022-12-24T23:40:20.207Z,2.33
2022-12-24T23:43:42.752Z,1.20
2022-12-24T23:47:05.659Z,2.83
2022-12-24T23:50:28.132Z,10.55
2022-12-24T23:53:52.327Z,1.08
2022-12-24T23:57:14.867Z,1.20
